»·PEaware :: N235B KLAX-KSAN

N235B :: KLAX-KSAN

FLIGHT INFORMATION

Flight Status: Arrived
Operator: Privately registered:
United States
More flights under this callsign
Pilot: Jason D. (29273)
Aircraft: BEECH AIRCRAFT BARON
(BE58)
More flights by this aircraft type
Origin: KLAX Los Angeles Intl
United States
Destination: KSAN San Diego Intl-Lindbergh
United States
More flights between these airports :: More routes between these airports
Route: +
File this flight plan on PilotEdge
Remarks:
Altitude:
(Current/Filed)
5,500ft
Speed:
(Current/Filed)
0kts
Departed: 17-Aug-20 10:45 AM
Arrived: 17-Aug-20 11:33 AM
Distance/Time
Traveled:
95nm/0:48
Distance/Time
To Go:
Arrived

Flight Plot

Page will automatically refresh every two minutes.


Map Options




Map Legend


Flown Route
Filed Route
Departure Airport
Arrival Airport
Navaid (VOR, NDB)
Fix

Horizontal Profiles

Position Reports

Time Latitude Longitude Heading Altitude Ground
Speed
17-Aug-20 10:28 33.939542 -118.406829 7 120ft 0kts
17-Aug-20 10:29 33.939542 -118.406829 7 120ft 0kts
17-Aug-20 10:30 33.939542 -118.406829 7 120ft 0kts
17-Aug-20 10:31 33.939542 -118.406829 7 120ft 0kts
17-Aug-20 10:32 33.939100 -118.407729 231 122ft 9kts
17-Aug-20 10:33 33.937833 -118.417319 265 118ft 30kts
17-Aug-20 10:34 33.937003 -118.425400 263 96ft 1kts
17-Aug-20 10:35 33.936988 -118.425550 263 96ft 0kts
17-Aug-20 10:36 33.936988 -118.425550 263 96ft 0kts
17-Aug-20 10:37 33.936431 -118.422660 87 105ft 23kts
17-Aug-20 10:37 33.937118 -118.416213 84 120ft 36kts
17-Aug-20 10:39 33.938132 -118.405986 83 121ft 30kts
17-Aug-20 10:40 33.939096 -118.396886 82 107ft 37kts
17-Aug-20 10:41 33.940207 -118.386150 81 99ft 38kts
17-Aug-20 10:41 33.940709 -118.380404 113 96ft 0kts
17-Aug-20 10:43 33.940709 -118.380404 113 96ft 0kts
17-Aug-20 10:43 33.940709 -118.380404 113 96ft 0kts
17-Aug-20 10:44 33.939593 -118.381443 260 96ft 43kts
17-Aug-20 10:45 33.936888 -118.407191 261 812ft 92kts
17-Aug-20 10:46 33.921336 -118.429664 183 1818ft 90kts
17-Aug-20 10:47 33.892621 -118.428268 174 2768ft 89kts
17-Aug-20 10:48 33.862288 -118.423410 174 3727ft 88kts
17-Aug-20 10:49 33.834812 -118.410590 135 4613ft 91kts
17-Aug-20 10:50 33.817036 -118.387361 137 5028ft 106kts
17-Aug-20 10:51 33.795456 -118.360847 138 4985ft 112kts
17-Aug-20 10:52 33.773290 -118.334637 139 4988ft 112kts
17-Aug-20 10:53 33.750653 -118.308849 141 5003ft 111kts
17-Aug-20 10:54 33.727252 -118.283174 135 5010ft 117kts
17-Aug-20 10:55 33.702459 -118.256879 136 5004ft 119kts
17-Aug-20 10:56 33.676481 -118.231931 134 4997ft 119kts
17-Aug-20 10:57 33.648054 -118.215859 160 5003ft 120kts
17-Aug-20 10:58 33.616120 -118.203234 159 4900ft 139kts
17-Aug-20 10:59 33.580352 -118.188703 159 4917ft 181kts
17-Aug-20 11:00 33.532837 -118.168439 156 4966ft 185kts
17-Aug-20 11:01 33.501300 -118.122435 122 5017ft 180kts
17-Aug-20 11:02 33.474795 -118.071437 107 4963ft 181kts
17-Aug-20 11:03 33.459851 -118.014367 106 4980ft 180kts
17-Aug-20 11:04 33.435966 -117.961934 129 4985ft 181kts
17-Aug-20 11:05 33.400432 -117.918962 135 4930ft 185kts
17-Aug-20 11:06 33.360173 -117.874098 136 3929ft 205kts
17-Aug-20 11:07 33.319093 -117.828772 136 3384ft 191kts
17-Aug-20 11:08 33.280848 -117.786652 136 3414ft 186kts
17-Aug-20 11:09 33.242648 -117.744606 136 3419ft 188kts
17-Aug-20 11:10 33.204624 -117.702656 139 3424ft 184kts
17-Aug-20 11:11 33.167113 -117.661689 139 3425ft 182kts
17-Aug-20 11:12 33.129750 -117.620772 139 3425ft 182kts
17-Aug-20 11:13 33.092464 -117.579979 139 3427ft 181kts
17-Aug-20 11:14 33.055326 -117.539382 139 3428ft 180kts
17-Aug-20 11:15 33.018341 -117.499012 139 3309ft 186kts
17-Aug-20 11:16 32.978316 -117.455379 138 2372ft 200kts
17-Aug-20 11:17 32.941344 -117.415012 138 1873ft 143kts
17-Aug-20 11:18 32.915717 -117.387140 139 1985ft 115kts
17-Aug-20 11:19 32.890347 -117.359627 139 2103ft 147kts
17-Aug-20 11:20 32.856830 -117.323226 139 1972ft 172kts
17-Aug-20 11:21 32.819772 -117.283039 139 1436ft 185kts
17-Aug-20 11:22 32.789180 -117.249878 139 1041ft 135kts
17-Aug-20 11:23 32.765342 -117.221814 114 992ft 112kts
17-Aug-20 11:24 32.761940 -117.184895 74 873ft 111kts
17-Aug-20 11:25 32.757968 -117.154226 162 786ft 99kts
17-Aug-20 11:26 32.742341 -117.168777 319 984ft 88kts
17-Aug-20 11:27 32.757167 -117.179088 101 793ft 98kts
17-Aug-20 11:28 32.754977 -117.141458 83 1281ft 121kts
17-Aug-20 11:29 32.748779 -117.109208 185 1572ft 122kts
17-Aug-20 11:30 32.722696 -117.122757 276 1318ft 121kts
17-Aug-20 11:31 32.728746 -117.167759 282 458ft 140kts
17-Aug-20 11:32 32.734642 -117.191488 68 19ft 0kts

Navigation Log

Ident Type
Flight plan parsing failed, navigation log unavailable